Stations météo

Publicité
Madrid, Espagne (8220): Température de l'air & dewpoint: 14.06.2018 09:00:00 - 20.06.2018 09:00:00 (CEST)Madrid, Espagne (8220): Vitesse du vent & gusts: 14.06.2018 09:00:00 - 20.06.2018 09:00:00 (CEST)Madrid, Espagne (8220): Direction du vent: 14.06.2018 09:00:00 - 20.06.2018 09:00:00 (CEST)Madrid, Espagne (8220): Quantités de précipitations: 14.06.2018 09:00:00 - 20.06.2018 09:00:00 (CEST)
Date & Time tt [°C] td [°C] ff [km/h] ff [knt] fx [km/h] fx [knt] dd rr [mm]
20.06.2018 09:00:00 - - - - - - - -
20.06.2018 08:00:00 19,7 10,2 7 4 21 12 ENE -
20.06.2018 07:00:00 20,0 9,3 6 4 17 9 ENE 0,0
20.06.2018 06:00:00 20,7 8,9 9 5 21 12 ENE 0,0
20.06.2018 05:00:00 21,1 9,0 8 4 19 11 ENE 0,0
20.06.2018 04:00:00 21,9 8,8 9 5 20 11 ENE 0,0
20.06.2018 03:00:00 23,3 8,9 5 3 14 8 E 0,0
20.06.2018 02:00:00 24,4 8,8 4 2 19 11 SSE -
20.06.2018 01:00:00 25,6 8,5 6 3 21 12 SSE 0,0
20.06.2018 00:00:00 27,0 8,9 5 3 27 15 SE 0,0
19.06.2018 23:00:00 27,0 9,8 8 4 19 11 ESE 0,0
19.06.2018 22:00:00 25,6 9,8 8 4 12 6 NNE 0,0
19.06.2018 21:00:00 29,2 10,3 4 2 14 8 NNE 0,0
19.06.2018 20:00:00 32,0 11,2 7 4 17 9 NNW -
19.06.2018 19:00:00 33,4 11,9 5 3 20 11 NW 0,0
19.06.2018 18:00:00 33,4 12,4 7 4 19 11 WSW 0,0
19.06.2018 17:00:00 31,9 11,7 2 1 17 9 ESE 0,0
19.06.2018 16:00:00 31,9 12,2 3 1 16 9 ENE 0,0
19.06.2018 15:00:00 30,5 11,4 3 2 22 12 ENE 0,0
19.06.2018 14:00:00 28,9 11,4 4 2 19 10 ESE -
19.06.2018 13:00:00 28,0 11,1 7 4 17 9 ENE 0,0
19.06.2018 12:00:00 26,1 10,6 9 5 20 11 E 0,0
19.06.2018 11:00:00 25,2 10,3 7 4 19 11 ENE 0,0
19.06.2018 10:00:00 23,7 10,4 13 7 22 12 ENE 0,0
19.06.2018 09:00:00 21,0 9,3 14 8 25 13 ENE 0,0
19.06.2018 08:00:00 17,1 8,3 11 6 26 14 ENE -
19.06.2018 07:00:00 16,8 8,0 18 10 29 16 NE 0,0
19.06.2018 06:00:00 16,4 7,6 11 6 26 14 NE 0,0
19.06.2018 05:00:00 17,0 7,3 12 6 30 16 NE 0,0
19.06.2018 04:00:00 17,6 7,0 10 5 26 14 NE 0,0
19.06.2018 03:00:00 18,5 6,7 13 7 30 16 NNE 0,0
19.06.2018 02:00:00 20,3 7,3 18 10 44 24 ENE -
19.06.2018 01:00:00 - - - - - - - -
19.06.2018 00:00:00 23,5 7,1 10 6 34 18 ENE 0,0
18.06.2018 23:00:00 25,3 6,5 15 8 32 18 ENE 0,0
18.06.2018 22:00:00 26,9 8,4 12 6 24 13 ENE 0,0
18.06.2018 21:00:00 28,2 8,9 12 6 26 14 E 0,0
18.06.2018 20:00:00 29,4 9,6 7 4 24 13 ENE -
18.06.2018 19:00:00 30,5 9,9 9 5 24 13 ENE 0,0
18.06.2018 18:00:00 31,6 10,9 6 3 26 14 ENE 0,0
18.06.2018 17:00:00 32,0 10,6 7 4 25 13 ENE 0,0
18.06.2018 16:00:00 30,3 9,8 9 5 26 14 ENE 0,0
18.06.2018 15:00:00 30,7 10,0 9 5 23 13 ENE 0,0
18.06.2018 14:00:00 30,2 10,2 11 6 23 13 NE -
18.06.2018 13:00:00 28,2 8,9 9 5 24 13 E 0,0
18.06.2018 12:00:00 27,5 9,3 8 4 19 10 E 0,0
18.06.2018 11:00:00 25,5 9,3 9 5 19 11 ENE 0,0
18.06.2018 10:00:00 23,5 8,8 8 5 19 10 E 0,0
18.06.2018 09:00:00 20,8 9,0 8 5 22 12 ENE 0,0
18.06.2018 08:00:00 17,6 7,6 14 7 27 15 ENE -
18.06.2018 07:00:00 14,0 6,8 1 1 8 5 NNW 0,0
18.06.2018 06:00:00 16,2 4,8 6 3 18 10 NE 0,0
18.06.2018 05:00:00 18,3 4,5 6 3 29 16 ENE 0,0
18.06.2018 04:00:00 19,5 4,5 14 8 26 14 ENE 0,0
18.06.2018 03:00:00 20,3 4,8 14 8 29 16 E 0,0
18.06.2018 02:00:00 21,6 5,1 17 9 30 16 E -
18.06.2018 01:00:00 21,6 5,1 11 6 25 13 ENE 0,0
18.06.2018 00:00:00 22,0 4,1 6 3 26 14 NE 0,0
17.06.2018 23:00:00 23,0 3,4 11 6 29 15 NE 0,0
17.06.2018 22:00:00 24,4 3,0 13 7 25 13 NE 0,0
17.06.2018 21:00:00 26,4 3,6 14 8 27 15 NE 0,0
17.06.2018 20:00:00 28,6 7,7 12 7 28 15 NE -
17.06.2018 19:00:00 30,7 9,0 10 5 26 14 ENE 0,0
17.06.2018 18:00:00 33,1 9,8 7 4 21 12 WSW 0,0
17.06.2018 17:00:00 32,6 10,0 7 4 21 12 WNW 0,0
17.06.2018 16:00:00 32,3 10,3 8 4 22 12 NW 0,0
17.06.2018 15:00:00 31,2 9,4 6 3 19 10 W 0,0
17.06.2018 14:00:00 29,8 7,7 1 1 21 11 WSW -
17.06.2018 13:00:00 29,1 7,7 4 2 15 8 ENE 0,0
17.06.2018 12:00:00 27,3 6,1 6 3 16 9 E 0,0
17.06.2018 11:00:00 26,3 6,4 8 5 19 10 NE 0,0
17.06.2018 10:00:00 23,5 4,5 10 5 19 11 E 0,0
17.06.2018 09:00:00 19,9 5,9 2 1 17 9 NE 0,0
17.06.2018 08:00:00 14,1 5,8 5 3 19 10 NNE -
17.06.2018 07:00:00 15,2 3,9 11 6 21 11 NE 0,0
17.06.2018 06:00:00 15,5 5,1 8 4 21 11 NNE 0,0
17.06.2018 05:00:00 17,8 4,6 4 2 26 14 NE 0,0
17.06.2018 04:00:00 19,0 5,1 14 8 29 15 ENE 0,0
17.06.2018 03:00:00 19,8 5,1 4 2 26 14 NE 0,0
17.06.2018 02:00:00 21,0 4,5 13 7 28 15 ENE -
17.06.2018 01:00:00 21,4 3,0 10 6 26 14 NE 0,0
17.06.2018 00:00:00 21,4 3,0 9 5 23 12 ENE 0,0
16.06.2018 23:00:00 23,0 3,9 11 6 25 13 NE 0,0
16.06.2018 22:00:00 24,3 4,6 10 6 25 13 NNE 0,0
16.06.2018 21:00:00 26,8 6,7 13 7 27 14 NE 0,0
16.06.2018 20:00:00 29,7 9,3 9 5 20 11 NE -
16.06.2018 19:00:00 30,3 10,3 7 4 17 9 NNW 0,0
16.06.2018 18:00:00 32,4 10,4 5 3 23 12 W 0,0
16.06.2018 17:00:00 32,5 11,1 11 6 21 12 W 0,0
16.06.2018 16:00:00 32,0 10,6 8 4 24 13 W 0,0
16.06.2018 15:00:00 29,6 9,7 1 0 18 10 SSW 0,0
16.06.2018 14:00:00 29,3 9,9 1 1 16 9 NW -
16.06.2018 13:00:00 28,6 10,8 5 3 16 9 W 0,0
16.06.2018 12:00:00 27,0 10,6 6 3 18 10 NE 0,0
16.06.2018 11:00:00 25,3 10,3 5 3 16 8 NE 0,0
16.06.2018 10:00:00 22,8 11,2 7 4 16 9 NE 0,0
16.06.2018 09:00:00 20,3 11,4 6 3 13 7 NE 0,0
16.06.2018 08:00:00 16,3 11,0 4 2 16 9 NNE -
16.06.2018 07:00:00 16,4 10,3 8 5 18 10 ENE 0,0
16.06.2018 06:00:00 16,7 10,3 5 3 17 9 NE 0,0
16.06.2018 05:00:00 17,0 10,4 9 5 18 10 NE 0,0
16.06.2018 04:00:00 17,7 10,0 10 6 19 10 NE 0,0
16.06.2018 03:00:00 18,9 9,9 10 6 22 12 NE 0,0
16.06.2018 02:00:00 20,5 10,0 16 8 34 18 ENE -
16.06.2018 01:00:00 21,2 10,0 17 9 36 19 ENE 0,0
16.06.2018 00:00:00 22,8 9,9 18 10 34 19 ENE 0,0
15.06.2018 23:00:00 22,8 8,9 11 6 22 12 NE 0,0
15.06.2018 22:00:00 24,5 8,4 13 7 30 16 NE 0,0
15.06.2018 21:00:00 27,2 8,1 6 3 17 9 WNW 0,0
15.06.2018 20:00:00 29,7 8,7 9 5 23 12 W -
15.06.2018 19:00:00 30,2 9,2 3 1 16 9 NW 0,0
15.06.2018 18:00:00 30,2 8,5 5 3 16 9 NNE 0,0
15.06.2018 17:00:00 31,0 8,7 6 4 16 9 NNW 0,0
15.06.2018 16:00:00 29,2 7,1 2 1 16 9 ESE 0,0
15.06.2018 15:00:00 29,0 7,0 1 1 16 9 ESE 0,0
15.06.2018 14:00:00 27,6 6,8 4 2 14 7 SSE -
15.06.2018 13:00:00 26,6 6,5 3 2 14 8 S 0,0
15.06.2018 12:00:00 25,3 5,9 5 3 14 8 WSW 0,0
15.06.2018 11:00:00 23,8 6,5 3 2 13 7 ESE 0,0
15.06.2018 10:00:00 22,1 8,5 1 1 7 4 SSW 0,0
15.06.2018 09:00:00 17,4 10,8 1 0 3 2 NW 0,0
15.06.2018 08:00:00 11,9 8,0 1 1 5 3 NNE -
15.06.2018 07:00:00 11,4 6,5 3 1 7 4 NW 0,0
15.06.2018 06:00:00 11,9 6,4 3 1 9 5 WNW 0,0
15.06.2018 05:00:00 12,4 6,4 0 0 13 7 SSE 0,0
15.06.2018 04:00:00 13,7 5,3 6 3 11 6 NW 0,0
15.06.2018 03:00:00 14,5 5,3 8 4 13 7 ENE 0,0
15.06.2018 02:00:00 14,8 5,0 4 2 9 5 ENE -
15.06.2018 01:00:00 16,0 4,3 4 2 15 8 N 0,0
15.06.2018 00:00:00 17,1 3,8 5 3 11 6 NW 0,0
14.06.2018 23:00:00 19,0 3,6 5 3 20 11 NW 0,0
14.06.2018 22:00:00 21,3 3,4 11 6 23 12 NE 0,0
14.06.2018 21:00:00 23,6 3,9 11 6 23 12 NE 0,0
14.06.2018 20:00:00 25,9 5,0 11 6 21 11 NE -
14.06.2018 19:00:00 27,7 6,4 6 4 29 16 N 0,0
14.06.2018 18:00:00 27,4 6,7 6 3 22 12 NNE 0,0
14.06.2018 17:00:00 28,0 7,3 6 4 22 12 NNW 0,0
14.06.2018 16:00:00 26,8 6,2 9 5 22 12 NNE 0,0
14.06.2018 15:00:00 25,1 6,8 4 2 22 12 NNW 0,0
14.06.2018 14:00:00 24,3 7,0 5 3 16 9 N -
14.06.2018 13:00:00 23,2 7,7 4 2 17 9 NNE 0,0
14.06.2018 12:00:00 21,5 7,3 7 4 13 7 NNW 0,0
14.06.2018 11:00:00 19,2 6,7 1 1 12 6 SSE 0,0
14.06.2018 10:00:00 18,0 6,5 8 4 14 8 NE 0,0
14.06.2018 09:00:00 15,3 5,8 11 6 20 11 E 0,0

tt = Température de l'air
td = dewpoint
ff = Vitesse du vent
fx = gusts
dd = Direction du vent
rr = Quantités de précipitations

stations d'obs. à proximité